createdAt,value
2023-03-15T00:01:16.160Z,94.24
2023-03-15T00:03:43.353Z,93.80
2023-03-15T00:06:10.638Z,95.18
2023-03-15T00:08:37.322Z,95.46
2023-03-15T00:11:04.201Z,95.86
2023-03-15T00:13:31.092Z,96.44
2023-03-15T00:15:59.960Z,95.44
2023-03-15T00:18:28.402Z,97.22
2023-03-15T00:20:55.226Z,97.02
2023-03-15T00:23:22.180Z,97.50
2023-03-15T00:25:50.480Z,96.13
2023-03-15T00:28:17.381Z,95.74
2023-03-15T00:30:44.474Z,96.13
2023-03-15T00:33:13.783Z,95.64
2023-03-15T00:35:45.145Z,96.43
2023-03-15T00:38:12.204Z,97.19
2023-03-15T00:40:38.659Z,96.70
2023-03-15T00:43:05.671Z,97.79
2023-03-15T00:45:32.785Z,96.29
2023-03-15T00:47:59.427Z,95.89
2023-03-15T00:50:26.381Z,95.87
2023-03-15T00:52:52.935Z,95.43
2023-03-15T00:55:20.175Z,95.20
2023-03-15T00:57:46.979Z,95.47
2023-03-15T01:00:20.616Z,95.74
2023-03-15T01:02:47.723Z,96.36
2023-03-15T01:05:14.190Z,97.59
2023-03-15T01:07:41.000Z,97.20
2023-03-15T01:10:07.932Z,97.08
2023-03-15T01:12:34.732Z,97.43
2023-03-15T01:15:02.762Z,97.31
2023-03-15T01:17:29.187Z,97.45
2023-03-15T01:19:55.626Z,95.62
2023-03-15T01:22:22.357Z,95.45
2023-03-15T01:24:48.778Z,94.27
2023-03-15T01:27:15.304Z,94.10
2023-03-15T01:29:41.822Z,93.06
2023-03-15T01:32:08.760Z,93.17
2023-03-15T01:34:36.244Z,93.28
2023-03-15T01:37:05.564Z,93.03
2023-03-15T01:39:32.270Z,92.42
2023-03-15T01:41:58.656Z,91.84
2023-03-15T01:44:53.934Z,92.11
2023-03-15T01:47:20.567Z,92.33
2023-03-15T01:49:54.248Z,91.91
2023-03-15T01:52:25.468Z,92.12
2023-03-15T01:55:02.412Z,91.98
2023-03-15T01:57:41.187Z,91.94
2023-03-15T02:00:17.864Z,91.69
2023-03-15T02:03:15.200Z,91.65
2023-03-15T02:05:47.987Z,91.96
2023-03-15T02:08:17.874Z,92.55
2023-03-15T02:10:49.392Z,92.41
2023-03-15T02:13:19.298Z,93.42
2023-03-15T02:15:46.583Z,94.85
2023-03-15T02:18:14.630Z,95.09
2023-03-15T02:20:46.555Z,96.21
2023-03-15T02:23:15.618Z,95.50
2023-03-15T02:26:02.136Z,95.92
2023-03-15T02:28:29.914Z,95.19
2023-03-15T02:30:57.652Z,95.33
2023-03-15T02:33:28.104Z,96.12
2023-03-15T02:35:55.454Z,96.21
2023-03-15T02:38:24.632Z,96.35
2023-03-15T02:40:53.265Z,96.93
2023-03-15T02:43:25.062Z,95.88
2023-03-15T02:45:51.705Z,94.38
2023-03-15T02:48:19.170Z,93.98
2023-03-15T02:50:45.569Z,95.38
2023-03-15T02:53:12.269Z,95.88
2023-03-15T02:55:39.149Z,96.76
2023-03-15T02:58:05.641Z,96.76
2023-03-15T03:00:32.095Z,96.92
2023-03-15T03:02:58.582Z,96.63
2023-03-15T03:05:25.113Z,97.72
2023-03-15T03:07:51.551Z,98.24
2023-03-15T03:10:21.176Z,97.69
2023-03-15T03:12:47.600Z,97.60
2023-03-15T03:15:14.038Z,98.74
2023-03-15T03:17:40.468Z,98.01
2023-03-15T03:20:09.869Z,99.27
2023-03-15T03:22:37.670Z,99.57
2023-03-15T03:25:06.195Z,100.00
2023-03-15T03:27:36.534Z,100.00
2023-03-15T03:30:08.905Z,100.00
2023-03-15T03:32:35.844Z,100.00
2023-03-15T03:35:02.303Z,100.00
2023-03-15T03:37:30.893Z,100.00
2023-03-15T03:39:58.255Z,99.89
2023-03-15T03:42:25.225Z,99.51
2023-03-15T03:44:53.917Z,100.00
2023-03-15T03:47:20.778Z,99.16
2023-03-15T03:49:47.104Z,99.54
2023-03-15T03:52:13.464Z,100.00
2023-03-15T03:54:39.817Z,99.85
2023-03-15T03:57:06.250Z,99.54
2023-03-15T03:59:32.635Z,99.71
2023-03-15T04:01:59.075Z,98.83
2023-03-15T04:04:26.428Z,98.65
2023-03-15T04:06:54.571Z,99.54
2023-03-15T04:09:22.024Z,98.79
2023-03-15T04:11:48.360Z,99.11
2023-03-15T04:14:14.775Z,98.78
2023-03-15T04:16:41.509Z,98.85
2023-03-15T04:19:08.248Z,99.12
2023-03-15T04:21:34.697Z,99.88
2023-03-15T04:24:02.013Z,99.91
2023-03-15T04:26:29.099Z,100.00
2023-03-15T04:28:57.366Z,100.00
2023-03-15T04:31:27.036Z,100.00
2023-03-15T04:33:54.595Z,100.00
2023-03-15T04:36:22.452Z,100.00
2023-03-15T04:38:49.195Z,100.00
2023-03-15T04:41:16.903Z,100.00
2023-03-15T04:43:44.309Z,100.00
2023-03-15T04:46:11.402Z,100.00
2023-03-15T04:48:37.735Z,100.00
2023-03-15T04:51:04.401Z,100.00
2023-03-15T04:53:30.842Z,100.00
2023-03-15T04:55:57.183Z,100.00
2023-03-15T04:58:23.608Z,100.00
2023-03-15T05:00:50.071Z,100.00
2023-03-15T05:03:16.511Z,100.00
2023-03-15T05:05:44.821Z,100.00
2023-03-15T05:08:11.684Z,100.00
2023-03-15T05:10:38.070Z,100.00
2023-03-15T05:13:04.497Z,100.00
2023-03-15T05:15:31.032Z,100.00
2023-03-15T05:17:57.799Z,100.00
2023-03-15T05:20:25.194Z,100.00
2023-03-15T05:22:53.400Z,100.00
2023-03-15T05:25:19.879Z,100.00
2023-03-15T05:27:46.668Z,100.00
2023-03-15T05:30:17.183Z,98.63
2023-03-15T05:32:44.582Z,98.20
2023-03-15T05:35:12.804Z,97.67
2023-03-15T05:37:39.601Z,97.24
2023-03-15T05:40:08.238Z,97.75
2023-03-15T05:42:35.338Z,97.74
2023-03-15T05:45:02.060Z,97.74
2023-03-15T05:47:28.531Z,98.33
2023-03-15T05:49:54.880Z,98.20
2023-03-15T05:52:21.245Z,98.20
2023-03-15T05:54:47.603Z,97.64
2023-03-15T05:57:14.037Z,98.43
2023-03-15T05:59:40.446Z,98.19
2023-03-15T06:02:07.119Z,96.60
2023-03-15T06:04:33.670Z,96.40
2023-03-15T06:07:00.178Z,96.65
2023-03-15T06:09:26.625Z,96.81
2023-03-15T06:11:53.620Z,97.37
2023-03-15T06:14:20.062Z,96.39
2023-03-15T06:16:46.446Z,95.54
2023-03-15T06:19:13.872Z,96.32
2023-03-15T06:21:40.309Z,94.20
2023-03-15T06:24:07.279Z,95.71
2023-03-15T06:26:33.657Z,95.52
2023-03-15T06:29:00.143Z,95.46
2023-03-15T06:31:26.599Z,95.68
2023-03-15T06:33:53.099Z,95.59
2023-03-15T06:36:19.551Z,96.20
2023-03-15T06:38:46.021Z,96.88
2023-03-15T06:41:14.656Z,96.50
2023-03-15T06:43:41.513Z,97.47
2023-03-15T06:46:08.002Z,96.96
2023-03-15T06:48:34.993Z,98.15
2023-03-15T06:51:01.473Z,99.50
2023-03-15T06:53:27.900Z,98.96
2023-03-15T06:55:54.320Z,99.42
2023-03-15T06:58:20.736Z,99.15
2023-03-15T07:00:48.698Z,98.86
2023-03-15T07:03:15.253Z,98.65
2023-03-15T07:05:41.662Z,97.99
2023-03-15T07:08:08.023Z,97.56
2023-03-15T07:10:34.517Z,97.62
2023-03-15T07:13:00.999Z,97.21
2023-03-15T07:15:28.465Z,98.55
2023-03-15T07:17:54.860Z,98.31
2023-03-15T07:20:21.247Z,98.69
2023-03-15T07:22:47.717Z,96.85
2023-03-15T07:25:14.386Z,97.68
2023-03-15T07:27:40.754Z,98.01
2023-03-15T07:30:09.526Z,98.39
2023-03-15T07:32:36.050Z,98.49
2023-03-15T07:35:02.559Z,97.61
2023-03-15T07:37:29.269Z,98.21
2023-03-15T07:39:55.752Z,99.25
2023-03-15T07:42:22.156Z,99.01
2023-03-15T07:44:48.595Z,98.82
2023-03-15T07:47:14.967Z,99.70
2023-03-15T07:49:41.557Z,100.00
2023-03-15T07:52:08.403Z,100.00
2023-03-15T07:54:34.827Z,99.33
2023-03-15T07:57:01.259Z,99.42
2023-03-15T07:59:27.840Z,99.72
2023-03-15T08:01:54.567Z,100.00
2023-03-15T08:04:21.181Z,99.63
2023-03-15T08:06:47.598Z,99.11
2023-03-15T08:09:14.096Z,99.15
2023-03-15T08:11:41.287Z,100.00
2023-03-15T08:14:08.698Z,100.00
2023-03-15T08:16:35.204Z,100.00
2023-03-15T08:19:01.593Z,100.00
2023-03-15T08:21:28.003Z,100.00
2023-03-15T08:23:54.365Z,100.00
2023-03-15T08:26:20.782Z,99.21
2023-03-15T08:28:47.178Z,98.54
2023-03-15T08:31:13.857Z,99.17
2023-03-15T08:33:40.566Z,99.61
2023-03-15T08:36:07.266Z,98.97
2023-03-15T08:38:33.919Z,99.45
2023-03-15T08:41:00.507Z,99.07
2023-03-15T08:43:26.982Z,99.39
2023-03-15T08:46:01.881Z,99.97
2023-03-15T08:48:29.566Z,99.36
2023-03-15T08:50:57.365Z,99.12
2023-03-15T08:53:23.763Z,99.08
2023-03-15T08:55:50.164Z,99.22
2023-03-15T08:58:16.717Z,99.05
2023-03-15T09:00:43.077Z,98.80
2023-03-15T09:03:09.952Z,97.84
2023-03-15T09:05:36.996Z,97.78
2023-03-15T09:08:03.637Z,96.25
2023-03-15T09:10:29.979Z,95.84
2023-03-15T09:12:56.466Z,96.58
2023-03-15T09:15:23.293Z,96.70
2023-03-15T09:17:51.514Z,96.94
2023-03-15T09:20:19.828Z,96.46
2023-03-15T09:22:51.861Z,97.27
2023-03-15T09:25:18.659Z,96.72
2023-03-15T09:27:45.237Z,96.48
2023-03-15T09:30:12.415Z,95.01
2023-03-15T09:32:38.901Z,95.23
2023-03-15T09:35:07.754Z,95.83
2023-03-15T09:37:35.226Z,95.52
2023-03-15T09:40:02.093Z,93.35
2023-03-15T09:42:34.362Z,92.57
2023-03-15T09:45:41.199Z,92.23
2023-03-15T09:48:16.747Z,91.93
2023-03-15T09:50:54.752Z,91.76
2023-03-15T09:53:31.951Z,91.55
2023-03-15T09:55:58.743Z,90.84
2023-03-15T09:58:32.408Z,90.67
2023-03-15T10:01:13.021Z,90.84
2023-03-15T10:03:53.479Z,90.47
2023-03-15T10:06:27.149Z,92.58
2023-03-15T10:08:59.436Z,93.58
2023-03-15T10:11:41.099Z,92.20
2023-03-15T10:14:19.338Z,91.94
2023-03-15T10:16:47.856Z,90.38
2023-03-15T10:19:35.443Z,90.62
2023-03-15T10:22:25.441Z,91.28
2023-03-15T10:25:13.260Z,89.97
2023-03-15T10:27:45.898Z,89.19
2023-03-15T10:30:17.277Z,90.29
2023-03-15T10:32:45.964Z,90.57
2023-03-15T10:35:17.687Z,90.38
2023-03-15T10:37:44.756Z,90.75
2023-03-15T10:40:16.249Z,88.20
2023-03-15T10:42:44.833Z,86.93
2023-03-15T10:45:21.285Z,85.51
2023-03-15T10:47:57.725Z,84.76
2023-03-15T10:50:32.148Z,85.76
2023-03-15T10:53:01.490Z,84.54
2023-03-15T10:55:36.809Z,82.51
2023-03-15T10:58:40.665Z,81.13
2023-03-15T11:01:11.840Z,80.53
2023-03-15T11:03:38.827Z,82.02
2023-03-15T11:06:21.029Z,81.52
2023-03-15T11:08:47.377Z,80.49
2023-03-15T11:11:13.740Z,81.71
2023-03-15T11:13:41.896Z,81.45
2023-03-15T11:16:14.384Z,78.01
2023-03-15T11:18:53.351Z,78.83
2023-03-15T11:21:22.891Z,77.56
2023-03-15T11:23:51.094Z,75.36
2023-03-15T11:26:32.232Z,73.12
2023-03-15T11:29:07.419Z,70.38
2023-03-15T11:31:35.541Z,70.44
2023-03-15T11:34:05.569Z,70.14
2023-03-15T11:36:35.908Z,68.96
2023-03-15T11:39:04.632Z,70.53
2023-03-15T11:41:42.842Z,70.23
2023-03-15T11:44:34.164Z,69.54
2023-03-15T11:47:16.608Z,69.90
2023-03-15T11:49:48.662Z,68.85
2023-03-15T11:52:17.123Z,67.68
2023-03-15T11:54:45.764Z,67.29
2023-03-15T11:57:42.385Z,69.06
2023-03-15T12:00:18.113Z,79.44
2023-03-15T12:02:59.487Z,80.10
2023-03-15T12:06:01.241Z,81.14
2023-03-15T12:08:34.515Z,83.44
2023-03-15T12:11:01.588Z,84.10
2023-03-15T12:13:30.723Z,85.22
2023-03-15T12:15:58.561Z,82.89
2023-03-15T12:18:31.104Z,82.07
2023-03-15T12:21:14.561Z,83.81
2023-03-15T12:23:46.453Z,83.97
2023-03-15T12:26:24.544Z,85.97
2023-03-15T12:29:03.956Z,85.25
2023-03-15T12:31:57.835Z,86.13
2023-03-15T12:34:42.278Z,82.96
2023-03-15T12:37:15.294Z,81.63
2023-03-15T12:39:51.345Z,79.50
2023-03-15T12:42:31.193Z,76.82
2023-03-15T12:45:15.619Z,72.15
2023-03-15T12:47:51.559Z,74.78
2023-03-15T12:50:45.782Z,74.59
2023-03-15T12:53:24.721Z,76.53
2023-03-15T12:55:56.632Z,77.78
2023-03-15T12:58:35.537Z,76.78
2023-03-15T13:01:05.338Z,75.32
2023-03-15T13:03:35.648Z,77.81
2023-03-15T13:06:19.518Z,82.35
2023-03-15T13:09:09.057Z,82.84
2023-03-15T13:11:53.154Z,86.22
2023-03-15T13:14:59.675Z,87.12
2023-03-15T13:17:41.554Z,88.18
2023-03-15T13:20:45.452Z,85.92
2023-03-15T13:23:26.124Z,91.87
2023-03-15T13:26:17.521Z,88.68
2023-03-15T13:28:58.995Z,90.88
2023-03-15T13:31:29.992Z,90.17
2023-03-15T13:34:10.084Z,89.88
2023-03-15T13:36:46.014Z,89.85
2023-03-15T13:39:33.530Z,89.74
2023-03-15T13:42:17.917Z,90.68
2023-03-15T13:44:44.332Z,91.50
2023-03-15T13:47:21.934Z,91.27
2023-03-15T13:49:52.262Z,89.78
2023-03-15T13:52:18.704Z,89.92
2023-03-15T13:54:45.724Z,90.06
2023-03-15T13:57:23.338Z,91.67
2023-03-15T14:00:00.686Z,92.75
2023-03-15T14:02:54.082Z,92.36
2023-03-15T14:05:27.448Z,93.09
2023-03-15T14:08:15.352Z,90.66
2023-03-15T14:10:45.627Z,90.42
2023-03-15T14:13:21.128Z,87.33
2023-03-15T14:15:48.105Z,86.42
2023-03-15T14:18:24.127Z,79.20
2023-03-15T14:20:59.942Z,78.05
2023-03-15T14:23:28.231Z,78.94
2023-03-15T14:26:11.107Z,81.36
2023-03-15T14:28:39.369Z,79.64
2023-03-15T14:31:06.502Z,79.44
2023-03-15T14:33:40.704Z,80.48
2023-03-15T14:36:22.394Z,79.62
2023-03-15T14:38:58.150Z,77.63
2023-03-15T14:41:27.293Z,77.39
2023-03-15T14:43:53.944Z,77.50
2023-03-15T14:46:21.073Z,75.43
2023-03-15T14:48:49.951Z,74.00
2023-03-15T14:51:19.714Z,75.07
2023-03-15T14:53:48.326Z,75.72
2023-03-15T14:56:15.354Z,74.66
2023-03-15T14:58:42.629Z,72.59
2023-03-15T15:01:13.811Z,71.29
2023-03-15T15:03:48.118Z,71.89
2023-03-15T15:06:15.932Z,70.10
2023-03-15T15:08:45.639Z,70.71
2023-03-15T15:11:12.106Z,70.97
2023-03-15T15:13:40.053Z,70.22
2023-03-15T15:16:06.995Z,70.45
2023-03-15T15:18:35.703Z,71.01
2023-03-15T15:21:11.356Z,74.51
2023-03-15T15:23:54.906Z,72.16
2023-03-15T15:26:26.265Z,70.21
2023-03-15T15:28:53.226Z,69.50
2023-03-15T15:31:22.770Z,70.66
2023-03-15T15:33:50.336Z,71.83
2023-03-15T15:36:22.603Z,73.74
2023-03-15T15:38:49.676Z,72.05
2023-03-15T15:41:21.934Z,70.16
2023-03-15T15:43:48.328Z,70.36
2023-03-15T15:46:14.858Z,68.95
2023-03-15T15:48:41.809Z,69.04
2023-03-15T15:51:38.644Z,67.43
2023-03-15T15:54:05.874Z,67.66
2023-03-15T15:56:35.522Z,65.86
2023-03-15T15:59:04.625Z,66.58
2023-03-15T16:01:31.630Z,65.08
2023-03-15T16:03:58.815Z,65.02
2023-03-15T16:06:25.275Z,65.70
2023-03-15T16:08:52.895Z,66.25
2023-03-15T16:11:20.657Z,67.03
2023-03-15T16:13:50.265Z,64.23
2023-03-15T16:16:17.982Z,65.36
2023-03-15T16:18:44.883Z,64.14
2023-03-15T16:21:26.419Z,65.20
2023-03-15T16:24:00.735Z,64.42
2023-03-15T16:26:27.668Z,66.59
2023-03-15T16:28:54.343Z,66.88
2023-03-15T16:31:22.026Z,65.85
2023-03-15T16:33:49.800Z,65.54
2023-03-15T16:36:21.733Z,66.60
2023-03-15T16:38:48.911Z,67.22
2023-03-15T16:41:16.813Z,67.33
2023-03-15T16:43:44.258Z,64.71
2023-03-15T16:46:15.976Z,66.27
2023-03-15T16:48:43.216Z,68.83
2023-03-15T16:51:13.952Z,71.48
2023-03-15T16:53:44.537Z,71.16
2023-03-15T16:56:13.350Z,73.30
2023-03-15T16:58:40.280Z,73.25
2023-03-15T17:01:11.522Z,73.10
2023-03-15T17:03:38.145Z,73.70
2023-03-15T17:06:04.691Z,73.85
2023-03-15T17:08:32.283Z,73.09
2023-03-15T17:10:58.977Z,73.73
2023-03-15T17:13:29.736Z,74.29
2023-03-15T17:15:56.253Z,73.95
2023-03-15T17:18:23.987Z,74.62
2023-03-15T17:20:50.674Z,73.97
2023-03-15T17:23:19.632Z,74.17
2023-03-15T17:25:46.311Z,75.18
2023-03-15T17:28:12.786Z,73.55
2023-03-15T17:30:39.279Z,74.05
2023-03-15T17:33:06.086Z,73.84
2023-03-15T17:35:54.685Z,73.31
2023-03-15T17:38:21.759Z,72.99
2023-03-15T17:40:48.356Z,74.30
2023-03-15T17:43:16.450Z,74.75
2023-03-15T17:45:43.002Z,75.34
2023-03-15T17:48:10.082Z,76.91
2023-03-15T17:50:37.590Z,78.64
2023-03-15T17:53:14.918Z,79.26
2023-03-15T17:55:41.282Z,80.36
2023-03-15T17:58:16.237Z,80.65
2023-03-15T18:00:43.525Z,80.95
2023-03-15T18:03:13.121Z,81.34
2023-03-15T18:05:39.619Z,80.46
2023-03-15T18:08:08.024Z,80.68
2023-03-15T18:10:36.926Z,81.84
2023-03-15T18:13:04.159Z,80.76
2023-03-15T18:15:30.790Z,80.60
2023-03-15T18:17:57.251Z,80.93
2023-03-15T18:20:24.186Z,81.38
2023-03-15T18:22:51.370Z,82.35
2023-03-15T18:25:22.048Z,81.99
2023-03-15T18:27:49.433Z,81.76
2023-03-15T18:30:18.870Z,82.98
2023-03-15T18:32:45.518Z,83.04
2023-03-15T18:35:17.966Z,84.13
2023-03-15T18:37:45.382Z,84.75
2023-03-15T18:40:13.753Z,83.84
2023-03-15T18:42:41.711Z,82.80
2023-03-15T18:45:18.451Z,82.66
2023-03-15T18:47:45.574Z,83.49
2023-03-15T18:50:12.983Z,84.52
2023-03-15T18:52:40.254Z,84.87
2023-03-15T18:55:07.807Z,85.23
2023-03-15T18:57:35.491Z,86.22
2023-03-15T19:00:01.995Z,87.00
2023-03-15T19:02:28.568Z,83.69
2023-03-15T19:04:58.352Z,83.50
2023-03-15T19:07:25.673Z,83.26
2023-03-15T19:09:52.446Z,83.07
2023-03-15T19:12:18.821Z,82.56
2023-03-15T19:14:45.280Z,82.85
2023-03-15T19:17:11.789Z,84.42
2023-03-15T19:19:38.256Z,84.44
2023-03-15T19:22:04.633Z,85.71
2023-03-15T19:24:33.003Z,85.60
2023-03-15T19:26:59.404Z,86.07
2023-03-15T19:29:25.803Z,86.63
2023-03-15T19:31:52.213Z,87.38
2023-03-15T19:34:18.588Z,87.16
2023-03-15T19:36:44.922Z,88.15
2023-03-15T19:39:12.279Z,88.52
2023-03-15T19:41:38.723Z,89.18
2023-03-15T19:44:07.946Z,90.20
2023-03-15T19:46:34.464Z,91.17
2023-03-15T19:49:02.201Z,90.54
2023-03-15T19:51:28.935Z,91.15
2023-03-15T19:53:56.456Z,91.46
2023-03-15T19:56:23.206Z,92.27
2023-03-15T19:58:49.789Z,91.39
2023-03-15T20:01:16.538Z,91.25
2023-03-15T20:03:42.968Z,91.56
2023-03-15T20:06:15.062Z,91.68
2023-03-15T20:08:42.702Z,91.62
2023-03-15T20:11:12.129Z,91.51
2023-03-15T20:13:38.542Z,90.45
2023-03-15T20:16:06.316Z,91.23
2023-03-15T20:18:32.719Z,91.02
2023-03-15T20:20:59.256Z,91.75
2023-03-15T20:23:25.796Z,92.57
2023-03-15T20:26:02.494Z,93.42
2023-03-15T20:28:28.965Z,93.68
2023-03-15T20:30:55.382Z,93.46
2023-03-15T20:33:22.100Z,94.24
2023-03-15T20:35:48.577Z,93.02
2023-03-15T20:38:15.043Z,94.19
2023-03-15T20:40:41.375Z,92.99
2023-03-15T20:43:07.875Z,94.00
2023-03-15T20:45:34.556Z,94.05
2023-03-15T20:48:01.093Z,93.90
2023-03-15T20:50:27.456Z,94.91
2023-03-15T20:52:53.900Z,95.11
2023-03-15T20:55:21.068Z,95.61
2023-03-15T20:57:47.452Z,95.26
2023-03-15T21:00:18.206Z,95.19
2023-03-15T21:02:46.250Z,95.72
2023-03-15T21:05:16.115Z,96.31
2023-03-15T21:07:43.183Z,95.67
2023-03-15T21:10:13.529Z,96.19
2023-03-15T21:12:40.186Z,96.89
2023-03-15T21:15:07.129Z,96.59
2023-03-15T21:17:33.556Z,96.50
2023-03-15T21:20:00.611Z,96.16
2023-03-15T21:22:26.961Z,96.09
2023-03-15T21:24:56.225Z,96.43
2023-03-15T21:27:25.948Z,96.54
2023-03-15T21:29:52.509Z,96.09
2023-03-15T21:32:18.856Z,96.19
2023-03-15T21:34:45.217Z,96.16
2023-03-15T21:37:11.627Z,96.67
2023-03-15T21:39:38.401Z,97.43
2023-03-15T21:42:05.150Z,97.70
2023-03-15T21:44:33.844Z,97.13
2023-03-15T21:47:01.980Z,96.55
2023-03-15T21:49:28.508Z,97.09
2023-03-15T21:51:54.947Z,97.02
2023-03-15T21:54:21.361Z,96.95
2023-03-15T21:56:47.778Z,96.56
2023-03-15T21:59:14.641Z,97.65
2023-03-15T22:01:41.652Z,97.73
2023-03-15T22:04:08.122Z,97.96
2023-03-15T22:06:34.555Z,96.66
2023-03-15T22:09:00.956Z,96.90
2023-03-15T22:11:27.424Z,97.02
2023-03-15T22:13:53.800Z,96.54
2023-03-15T22:16:20.364Z,96.00
2023-03-15T22:18:46.807Z,97.05
2023-03-15T22:21:13.247Z,97.01
2023-03-15T22:23:39.589Z,97.14
2023-03-15T22:26:06.148Z,97.03
2023-03-15T22:28:33.111Z,97.95
2023-03-15T22:30:59.545Z,97.66
2023-03-15T22:33:25.925Z,97.23
2023-03-15T22:35:57.533Z,98.33
2023-03-15T22:38:25.587Z,97.86
2023-03-15T22:41:00.549Z,98.34
2023-03-15T22:43:27.028Z,98.20
2023-03-15T22:45:53.426Z,97.82
2023-03-15T22:48:19.829Z,98.77
2023-03-15T22:50:46.225Z,98.37
2023-03-15T22:53:12.605Z,98.43
2023-03-15T22:55:38.985Z,99.08
2023-03-15T22:58:05.341Z,98.85
2023-03-15T23:00:31.965Z,98.29
2023-03-15T23:02:58.324Z,98.74
2023-03-15T23:05:25.094Z,98.75
2023-03-15T23:07:51.819Z,98.58
2023-03-15T23:10:18.137Z,99.14
2023-03-15T23:12:44.534Z,98.33
2023-03-15T23:15:13.215Z,98.80
2023-03-15T23:17:40.273Z,98.11
2023-03-15T23:20:07.556Z,98.96
2023-03-15T23:22:34.118Z,98.40
2023-03-15T23:25:00.624Z,98.18
2023-03-15T23:27:27.028Z,97.26
2023-03-15T23:29:54.806Z,98.57
2023-03-15T23:32:23.174Z,98.22
2023-03-15T23:34:49.658Z,98.62
2023-03-15T23:37:16.193Z,98.96
2023-03-15T23:39:43.198Z,98.54
2023-03-15T23:42:10.187Z,99.11
2023-03-15T23:44:36.626Z,98.59
2023-03-15T23:47:03.489Z,98.16
2023-03-15T23:49:29.902Z,98.44
2023-03-15T23:51:56.380Z,98.58
2023-03-15T23:54:23.512Z,98.76
2023-03-15T23:56:50.091Z,100.00
2023-03-15T23:59:17.223Z,98.50
